createdAt,value
2017-07-18T03:53:58.193Z,4.90
2017-07-18T03:56:24.948Z,4.73
2017-07-18T03:58:51.729Z,6.00
2017-07-18T04:01:18.522Z,4.47
2017-07-18T04:03:45.290Z,5.30
2017-07-18T04:06:12.059Z,4.53
2017-07-18T04:08:39.207Z,4.87
2017-07-18T04:11:05.970Z,5.30
2017-07-18T04:13:32.748Z,4.93
2017-07-18T04:15:59.567Z,6.70
2017-07-18T04:18:26.323Z,4.97
2017-07-18T04:20:53.082Z,4.70
2017-07-18T04:23:19.890Z,6.37
2017-07-18T04:25:46.655Z,4.03
2017-07-18T04:28:13.388Z,6.00
2017-07-18T04:30:40.331Z,6.40
2017-07-18T04:33:07.091Z,5.90
2017-07-18T04:35:33.870Z,5.33
2017-07-18T04:38:01.375Z,8.63
2017-07-18T04:40:28.170Z,5.87
2017-07-18T04:42:54.939Z,5.20
2017-07-18T04:45:21.738Z,4.73
2017-07-18T04:47:48.984Z,5.20
2017-07-18T04:50:15.751Z,4.47
2017-07-18T04:52:42.536Z,4.20
2017-07-18T04:55:09.302Z,5.00
2017-07-18T04:57:36.069Z,4.53
2017-07-18T05:00:02.863Z,5.80
2017-07-18T05:02:29.631Z,5.30
2017-07-18T05:04:56.387Z,5.23
2017-07-18T05:07:23.175Z,5.80
2017-07-18T05:09:49.929Z,5.17
2017-07-18T05:12:16.688Z,5.77
2017-07-18T05:14:43.479Z,4.40
2017-07-18T05:17:10.221Z,4.50
2017-07-18T05:19:36.971Z,3.60
2017-07-18T05:22:03.786Z,5.50
2017-07-18T05:24:30.572Z,4.60
2017-07-18T05:26:57.308Z,3.57
2017-07-18T05:29:24.252Z,4.40
2017-07-18T05:31:51.002Z,3.93
2017-07-18T05:34:17.743Z,3.77
2017-07-18T05:36:44.523Z,3.90
2017-07-18T05:39:11.263Z,3.80
2017-07-18T05:41:38.018Z,3.97
2017-07-18T05:44:04.815Z,3.87
2017-07-18T05:46:31.597Z,3.67
2017-07-18T05:48:58.498Z,4.20
2017-07-18T05:51:25.291Z,3.20
2017-07-18T05:53:52.036Z,3.77
2017-07-18T05:56:18.804Z,3.70
2017-07-18T05:58:45.609Z,3.57
2017-07-18T06:01:12.365Z,3.00
2017-07-18T06:03:39.134Z,2.80
2017-07-18T06:06:05.935Z,3.67
2017-07-18T06:08:32.677Z,3.30
2017-07-18T06:10:59.471Z,3.10
2017-07-18T06:13:26.265Z,3.33
2017-07-18T06:15:53.012Z,2.90
2017-07-18T06:18:19.753Z,2.53
2017-07-18T06:20:46.541Z,3.53
2017-07-18T06:23:13.288Z,2.67
2017-07-18T06:25:40.070Z,2.60
2017-07-18T06:28:06.863Z,3.20
2017-07-18T06:30:33.632Z,3.70
2017-07-18T06:33:00.398Z,2.70
2017-07-18T06:35:27.211Z,2.50
2017-07-18T06:37:54.784Z,2.80
2017-07-18T06:40:21.726Z,2.90
2017-07-18T06:42:48.531Z,2.43
2017-07-18T06:45:15.267Z,2.57
2017-07-18T06:47:42.369Z,3.03
2017-07-18T06:50:09.194Z,2.33
2017-07-18T06:52:35.944Z,2.83
2017-07-18T06:55:02.694Z,2.70
2017-07-18T06:57:29.963Z,2.63
2017-07-18T06:59:56.920Z,2.40
2017-07-18T07:02:23.697Z,2.93
2017-07-18T07:04:50.500Z,2.50
2017-07-18T07:07:17.248Z,2.53
2017-07-18T07:09:43.991Z,2.40
2017-07-18T07:12:10.811Z,2.87
2017-07-18T07:14:37.549Z,2.70
2017-07-18T07:17:04.288Z,2.77
2017-07-18T07:19:31.074Z,2.50
2017-07-18T07:21:57.816Z,2.60
2017-07-18T07:24:24.923Z,3.10
2017-07-18T07:26:51.727Z,3.60
2017-07-18T07:29:18.485Z,2.80
2017-07-18T07:31:45.899Z,2.80
2017-07-18T07:34:12.724Z,2.63
2017-07-18T07:36:39.479Z,2.43
2017-07-18T07:39:06.213Z,2.90
2017-07-18T07:41:33.003Z,2.80
2017-07-18T07:43:59.754Z,2.83
2017-07-18T07:46:26.491Z,2.80
2017-07-18T07:48:53.300Z,2.40
2017-07-18T07:51:20.050Z,2.73
2017-07-18T07:53:47.469Z,2.70
2017-07-18T07:56:14.267Z,2.90
2017-07-18T07:58:41.022Z,3.17
2017-07-18T08:01:07.769Z,2.73
2017-07-18T08:03:34.575Z,2.40
2017-07-18T08:06:01.341Z,2.90
2017-07-18T08:08:28.105Z,2.73
2017-07-18T08:10:54.897Z,3.63
2017-07-18T08:13:21.653Z,3.53
2017-07-18T08:15:48.416Z,2.40
2017-07-18T08:18:15.200Z,2.40
2017-07-18T08:20:41.969Z,2.70
2017-07-18T08:23:08.712Z,2.87
2017-07-18T08:25:35.518Z,2.60
2017-07-18T08:28:02.260Z,2.73
2017-07-18T08:30:29.039Z,2.27
2017-07-18T08:32:55.828Z,2.83
2017-07-18T08:35:22.598Z,3.17
2017-07-18T08:37:49.365Z,2.77
2017-07-18T08:40:16.171Z,2.50
2017-07-18T08:42:43.665Z,2.50
2017-07-18T08:45:10.428Z,2.80
2017-07-18T08:47:37.229Z,3.20
2017-07-18T08:50:03.986Z,2.77
2017-07-18T08:52:30.734Z,2.80
2017-07-18T08:54:57.547Z,2.57
2017-07-18T08:57:24.314Z,2.70
2017-07-18T08:59:51.171Z,2.70
2017-07-18T09:02:18.218Z,3.40
2017-07-18T09:04:44.974Z,2.40
2017-07-18T09:07:11.834Z,2.90
2017-07-18T09:09:38.638Z,3.30
2017-07-18T09:12:05.384Z,3.23
2017-07-18T09:14:32.151Z,2.70
2017-07-18T09:16:58.932Z,3.57
2017-07-18T09:19:25.681Z,3.20
2017-07-18T09:21:52.434Z,3.40
2017-07-18T09:24:19.249Z,3.23
2017-07-18T09:26:45.993Z,3.00
2017-07-18T09:29:12.760Z,3.07
2017-07-18T09:31:39.575Z,3.20
2017-07-18T09:34:06.698Z,2.63
2017-07-18T09:36:33.447Z,4.00
2017-07-18T09:39:00.242Z,3.80
2017-07-18T09:41:26.980Z,3.37
2017-07-18T09:43:53.729Z,2.83
2017-07-18T09:46:20.535Z,2.63
2017-07-18T09:48:47.269Z,3.17
2017-07-18T09:51:14.039Z,3.00
2017-07-18T09:53:40.843Z,3.70
2017-07-18T09:56:07.613Z,4.40
2017-07-18T09:58:34.380Z,2.80
2017-07-18T10:01:01.175Z,3.07
2017-07-18T10:03:27.939Z,3.30
2017-07-18T10:05:54.716Z,3.13
2017-07-18T10:08:21.513Z,2.93
2017-07-18T10:10:48.271Z,3.07
2017-07-18T10:13:15.034Z,3.03
2017-07-18T10:15:41.829Z,4.50
2017-07-18T10:18:08.579Z,3.00
2017-07-18T10:20:36.062Z,3.40
2017-07-18T10:23:02.866Z,3.17
2017-07-18T10:25:29.633Z,3.60
2017-07-18T10:27:56.388Z,3.17
2017-07-18T10:30:23.186Z,2.70
2017-07-18T10:32:49.949Z,3.10
2017-07-18T10:35:16.730Z,3.00
2017-07-18T10:37:43.548Z,3.30
2017-07-18T10:40:10.293Z,3.30
2017-07-18T10:42:37.043Z,3.60
2017-07-18T10:45:03.851Z,3.23
2017-07-18T10:47:30.615Z,3.80
2017-07-18T10:49:57.374Z,3.13
2017-07-18T10:52:24.170Z,3.43
2017-07-18T10:54:50.929Z,3.40
2017-07-18T10:57:17.679Z,3.90
2017-07-18T10:59:44.465Z,3.33
2017-07-18T11:02:11.208Z,3.50
2017-07-18T11:04:37.973Z,4.40
2017-07-18T11:07:04.755Z,3.50
2017-07-18T11:09:31.594Z,3.23
2017-07-18T11:11:59.119Z,4.27
2017-07-18T11:14:25.907Z,3.50
2017-07-18T11:16:52.662Z,3.87
2017-07-18T11:19:19.426Z,3.90
2017-07-18T11:21:46.208Z,3.57
2017-07-18T11:24:12.968Z,4.10
2017-07-18T11:26:39.734Z,3.43
2017-07-18T11:29:06.579Z,3.70
2017-07-18T11:31:33.333Z,3.90
2017-07-18T11:34:00.068Z,3.97
2017-07-18T11:36:26.920Z,4.03
2017-07-18T11:38:53.680Z,3.57
2017-07-18T11:41:21.066Z,4.20
2017-07-18T11:43:47.870Z,4.17
2017-07-18T11:46:14.620Z,3.17
2017-07-18T11:48:41.374Z,3.80
2017-07-18T11:51:08.177Z,3.73
2017-07-18T11:53:34.923Z,3.63
2017-07-18T11:56:01.688Z,3.80
2017-07-18T11:58:28.495Z,3.33
2017-07-18T12:00:55.243Z,3.67
2017-07-18T12:03:21.983Z,4.00
2017-07-18T12:05:48.768Z,3.70
2017-07-18T12:08:15.524Z,3.43
2017-07-18T12:10:42.294Z,3.83
2017-07-18T12:13:09.103Z,3.47
2017-07-18T12:15:35.856Z,3.40
2017-07-18T12:18:02.596Z,3.10
2017-07-18T12:20:29.566Z,3.33
2017-07-18T12:22:56.333Z,3.20
2017-07-18T12:25:23.076Z,3.20
2017-07-18T12:27:49.872Z,3.47
2017-07-18T12:30:16.611Z,3.73
2017-07-18T12:32:43.367Z,3.90
2017-07-18T12:35:10.153Z,3.67
2017-07-18T12:37:36.925Z,3.90
2017-07-18T12:40:03.672Z,3.70
2017-07-18T12:42:30.476Z,3.43
2017-07-18T12:44:57.250Z,3.50
2017-07-18T12:47:24.009Z,3.70
2017-07-18T12:49:51.026Z,2.97
2017-07-18T12:52:17.780Z,3.43
2017-07-18T12:54:44.523Z,3.33
2017-07-18T12:57:11.320Z,3.90
2017-07-18T12:59:38.059Z,3.80
2017-07-18T13:02:04.797Z,3.80
2017-07-18T13:04:31.607Z,4.30
2017-07-18T13:06:59.379Z,4.50
2017-07-18T13:09:26.159Z,4.23
2017-07-18T13:11:52.960Z,4.30
2017-07-18T13:14:19.691Z,4.03
2017-07-18T13:16:46.458Z,3.67
2017-07-18T13:19:13.270Z,4.30
2017-07-18T13:21:40.020Z,3.50
2017-07-18T13:24:06.774Z,4.20
2017-07-18T13:26:33.590Z,3.37
2017-07-18T13:29:00.331Z,4.40
2017-07-18T13:31:27.712Z,3.53
2017-07-18T13:33:54.489Z,3.63
2017-07-18T13:36:21.228Z,3.83
2017-07-18T13:38:47.968Z,3.73
2017-07-18T13:41:14.771Z,4.10
2017-07-18T13:43:42.254Z,4.27
2017-07-18T13:46:09.010Z,4.20
2017-07-18T13:48:36.511Z,3.93
2017-07-18T13:51:03.259Z,3.60
2017-07-18T13:53:30.014Z,4.20
2017-07-18T13:55:56.818Z,4.07
2017-07-18T13:58:23.574Z,3.50
2017-07-18T14:00:50.319Z,3.63
2017-07-18T14:03:17.096Z,3.90
2017-07-18T14:05:43.841Z,3.30
2017-07-18T14:08:10.607Z,3.90
2017-07-18T14:10:37.429Z,3.97
2017-07-18T14:13:04.225Z,3.80
2017-07-18T14:15:31.080Z,3.73
2017-07-18T14:17:57.859Z,4.20
2017-07-18T14:20:24.601Z,3.77
2017-07-18T14:22:51.347Z,3.70
2017-07-18T14:25:18.133Z,3.70
2017-07-18T14:27:44.880Z,3.77
2017-07-18T14:30:11.646Z,3.40
2017-07-18T14:32:38.443Z,4.00
2017-07-18T14:35:05.188Z,3.80
2017-07-18T14:37:31.926Z,3.40
2017-07-18T14:39:58.705Z,3.93
2017-07-18T14:42:26.247Z,3.80
2017-07-18T14:44:53.011Z,4.17
2017-07-18T14:47:19.803Z,3.67
2017-07-18T14:49:46.570Z,4.40
2017-07-18T14:52:13.334Z,4.00
2017-07-18T14:54:40.111Z,4.13
2017-07-18T14:57:06.860Z,3.97
2017-07-18T14:59:33.603Z,4.70
2017-07-18T15:02:00.406Z,4.00
2017-07-18T15:04:27.170Z,4.43
2017-07-18T15:06:53.917Z,4.10
2017-07-18T15:09:20.703Z,3.97
2017-07-18T15:11:47.463Z,4.10
2017-07-18T15:14:14.230Z,4.30
2017-07-18T15:16:41.256Z,3.60
2017-07-18T15:19:08.038Z,3.57
2017-07-18T15:21:34.793Z,3.13
2017-07-18T15:24:01.581Z,4.17
2017-07-18T15:26:28.335Z,3.10
2017-07-18T15:28:55.073Z,3.70
2017-07-18T15:31:21.879Z,3.97
2017-07-18T15:33:48.631Z,3.67
2017-07-18T15:36:15.367Z,4.20
2017-07-18T15:38:42.194Z,3.43
2017-07-18T15:41:08.939Z,4.60
2017-07-18T15:43:35.675Z,3.60
2017-07-18T15:46:02.451Z,4.30
2017-07-18T15:48:29.191Z,5.93
2017-07-18T15:50:55.932Z,6.30
2017-07-18T15:53:22.714Z,5.63
2017-07-18T15:55:49.581Z,5.20
2017-07-18T15:58:16.329Z,6.00
2017-07-18T16:00:43.129Z,4.47
2017-07-18T16:03:09.970Z,4.03
2017-07-18T16:05:36.734Z,3.60
2017-07-18T16:08:03.904Z,4.33
2017-07-18T16:10:30.852Z,5.37
2017-07-18T16:12:57.611Z,6.00
2017-07-18T16:15:25.282Z,5.70
2017-07-18T16:17:52.063Z,4.60
2017-07-18T16:20:19.095Z,3.80
2017-07-18T16:22:45.919Z,4.30
2017-07-18T16:25:12.668Z,3.83
2017-07-18T16:27:39.416Z,4.10
2017-07-18T16:30:06.263Z,3.80
2017-07-18T16:32:33.690Z,4.00
2017-07-18T16:35:00.462Z,4.20
2017-07-18T16:37:27.265Z,4.03
2017-07-18T16:39:54.060Z,4.00
2017-07-18T16:42:20.804Z,4.20
2017-07-18T16:44:47.596Z,3.47
2017-07-18T16:47:14.363Z,4.40
2017-07-18T16:49:41.171Z,3.80
2017-07-18T16:52:07.967Z,3.77
2017-07-18T16:54:35.459Z,4.27
2017-07-18T16:57:02.214Z,3.50
2017-07-18T16:59:29.022Z,3.87
2017-07-18T17:01:55.782Z,4.53
2017-07-18T17:04:22.853Z,4.43
2017-07-18T17:06:49.661Z,4.60
2017-07-18T17:09:16.397Z,4.07
2017-07-18T17:11:43.142Z,3.83
2017-07-18T17:14:09.952Z,3.90
2017-07-18T17:16:37.044Z,4.90
2017-07-18T17:19:03.835Z,4.20
2017-07-18T17:21:30.628Z,4.00
2017-07-18T17:23:58.078Z,4.10
2017-07-18T17:26:24.812Z,4.20
2017-07-18T17:28:52.303Z,4.70
2017-07-18T17:31:19.056Z,3.60
2017-07-18T17:33:46.709Z,4.73
2017-07-18T17:36:13.505Z,3.80
2017-07-18T17:38:40.249Z,4.50
2017-07-18T17:41:07.012Z,4.90
2017-07-18T17:43:33.823Z,4.50
2017-07-18T17:46:00.582Z,3.93
2017-07-18T17:48:27.323Z,5.60
2017-07-18T17:50:54.107Z,5.13
2017-07-18T17:53:20.870Z,4.93
2017-07-18T17:55:47.631Z,4.50
2017-07-18T17:58:14.417Z,4.90
2017-07-18T18:00:41.184Z,4.40
2017-07-18T18:03:07.955Z,3.60
2017-07-18T18:05:34.761Z,4.47
2017-07-18T18:08:01.522Z,4.20
2017-07-18T18:10:28.268Z,4.50
2017-07-18T18:12:55.047Z,4.23
2017-07-18T18:15:21.805Z,4.50
2017-07-18T18:17:48.562Z,4.67
2017-07-18T18:20:15.367Z,4.60
2017-07-18T18:22:42.694Z,4.20
2017-07-18T18:25:09.476Z,4.80
2017-07-18T18:27:36.260Z,4.57
2017-07-18T18:30:03.043Z,5.67
2017-07-18T18:32:29.803Z,5.03
2017-07-18T18:34:56.600Z,4.70
2017-07-18T18:37:23.375Z,4.70
2017-07-18T18:39:50.127Z,4.17
2017-07-18T18:42:16.919Z,4.10
2017-07-18T18:44:44.042Z,4.63
2017-07-18T18:47:10.801Z,4.50
2017-07-18T18:49:37.584Z,4.47
2017-07-18T18:52:04.350Z,4.27
2017-07-18T18:54:31.109Z,5.33
2017-07-18T18:56:57.919Z,4.73
2017-07-18T18:59:24.691Z,4.33
2017-07-18T19:01:51.464Z,4.30
2017-07-18T19:04:18.270Z,4.00
2017-07-18T19:06:45.042Z,4.20
2017-07-18T19:09:12.277Z,4.87
2017-07-18T19:11:39.071Z,4.20
2017-07-18T19:14:05.816Z,4.70
2017-07-18T19:16:32.574Z,5.13
2017-07-18T19:18:59.360Z,5.30
2017-07-18T19:21:26.112Z,4.90
2017-07-18T19:23:52.868Z,4.70
2017-07-18T19:26:19.651Z,5.33
2017-07-18T19:28:46.396Z,4.40
2017-07-18T19:31:13.145Z,4.90
2017-07-18T19:33:39.942Z,4.90
2017-07-18T19:36:06.711Z,4.40
2017-07-18T19:38:33.469Z,6.17
2017-07-18T19:41:00.270Z,5.43
2017-07-18T19:43:27.026Z,4.70
2017-07-18T19:45:53.782Z,6.00
2017-07-18T19:48:20.583Z,4.47
2017-07-18T19:50:47.327Z,5.00
2017-07-18T19:53:14.090Z,4.90
2017-07-18T19:55:40.888Z,8.60
2017-07-18T19:58:07.634Z,5.10
2017-07-18T20:00:34.384Z,4.93
2017-07-18T20:03:01.766Z,5.63
2017-07-18T20:05:28.647Z,5.33
2017-07-18T20:07:56.201Z,5.37
2017-07-18T20:10:23.706Z,5.20
2017-07-18T20:12:50.444Z,5.90
2017-07-18T20:15:17.200Z,5.67
2017-07-18T20:17:44.018Z,4.90
2017-07-18T20:20:10.778Z,5.50
2017-07-18T20:22:37.519Z,5.30
2017-07-18T20:25:04.308Z,5.30
2017-07-18T20:27:31.056Z,5.60
2017-07-18T20:29:58.562Z,5.77
2017-07-18T20:32:25.352Z,5.87
2017-07-18T20:34:52.110Z,6.13
2017-07-18T20:37:18.861Z,6.10
2017-07-18T20:39:45.658Z,6.27
2017-07-18T20:42:12.415Z,6.30
2017-07-18T20:44:39.151Z,6.40
2017-07-18T20:47:05.961Z,20.10
2017-07-18T20:49:32.704Z,16.80
2017-07-18T20:51:59.444Z,8.00
2017-07-18T20:54:26.228Z,7.00
2017-07-18T20:56:53.702Z,6.87
2017-07-18T20:59:20.431Z,5.67
